sensor_id;sensor_type;location;lat;lon;timestamp;pressure;altitude;pressure_sealevel;temperature;humidity
56052;BME280;41919;42.648;23.384;2023-06-22T00:02:15;95011.00;;;18.29;98.08
56052;BME280;41919;42.648;23.384;2023-06-22T00:04:41;95010.69;;;18.26;99.67
56052;BME280;41919;42.648;23.384;2023-06-22T00:07:06;94980.94;;;18.01;100.00
56052;BME280;41919;42.648;23.384;2023-06-22T00:09:32;95007.53;;;18.12;100.00
56052;BME280;41919;42.648;23.384;2023-06-22T00:11:58;95007.16;;;18.03;100.00
56052;BME280;41919;42.648;23.384;2023-06-22T00:14:23;95011.13;;;17.89;100.00
56052;BME280;41919;42.648;23.384;2023-06-22T00:16:48;94945.84;;;17.60;100.00
56052;BME280;41919;42.648;23.384;2023-06-22T00:19:15;95002.19;;;18.07;100.00
56052;BME280;41919;42.648;23.384;2023-06-22T00:21:40;94996.09;;;18.23;100.00
56052;BME280;41919;42.648;23.384;2023-06-22T00:24:06;94963.22;;;18.19;100.00
56052;BME280;41919;42.648;23.384;2023-06-22T00:26:31;94991.56;;;18.57;100.00
56052;BME280;41919;42.648;23.384;2023-06-22T00:28:57;94930.03;;;18.28;100.00
56052;BME280;41919;42.648;23.384;2023-06-22T00:31:22;94981.09;;;18.46;97.19
56052;BME280;41919;42.648;23.384;2023-06-22T00:33:48;94929.34;;;17.99;97.06
56052;BME280;41919;42.648;23.384;2023-06-22T00:36:15;94973.72;;;18.14;96.27
56052;BME280;41919;42.648;23.384;2023-06-22T00:38:41;94989.66;;;18.02;97.40
56052;BME280;41919;42.648;23.384;2023-06-22T00:41:07;94921.47;;;17.58;97.26
56052;BME280;41919;42.648;23.384;2023-06-22T00:43:32;94919.72;;;17.47;97.96
56052;BME280;41919;42.648;23.384;2023-06-22T00:45:58;94978.22;;;17.68;99.54
56052;BME280;41919;42.648;23.384;2023-06-22T00:48:23;94981.91;;;17.67;100.00
56052;BME280;41919;42.648;23.384;2023-06-22T00:50:49;94983.22;;;17.52;100.00
56052;BME280;41919;42.648;23.384;2023-06-22T00:53:15;94925.03;;;17.07;100.00
56052;BME280;41919;42.648;23.384;2023-06-22T00:55:43;94995.78;;;17.45;100.00
56052;BME280;41919;42.648;23.384;2023-06-22T00:58:11;94989.91;;;17.43;100.00
56052;BME280;41919;42.648;23.384;2023-06-22T01:00:37;94920.47;;;17.02;100.00
56052;BME280;41919;42.648;23.384;2023-06-22T01:03:03;94977.53;;;17.43;100.00
56052;BME280;41919;42.648;23.384;2023-06-22T01:05:29;94973.97;;;17.38;100.00
56052;BME280;41919;42.648;23.384;2023-06-22T01:10:46;94935.72;;;17.12;100.00
56052;BME280;41919;42.648;23.384;2023-06-22T01:13:21;94987.16;;;17.50;100.00
56052;BME280;41919;42.648;23.384;2023-06-22T01:16:07;94989.06;;;17.54;100.00
56052;BME280;41919;42.648;23.384;2023-06-22T01:18:36;94884.34;;;16.91;100.00
56052;BME280;41919;42.648;23.384;2023-06-22T01:21:04;94937.38;;;17.30;100.00
56052;BME280;41919;42.648;23.384;2023-06-22T01:26:20;94983.09;;;17.59;100.00
56052;BME280;41919;42.648;23.384;2023-06-22T01:28:53;95003.50;;;17.63;100.00
56052;BME280;41919;42.648;23.384;2023-06-22T01:31:28;95000.19;;;17.68;100.00
56052;BME280;41919;42.648;23.384;2023-06-22T01:34:03;94960.63;;;17.44;100.00
56052;BME280;41919;42.648;23.384;2023-06-22T01:36:30;95015.88;;;17.75;100.00
56052;BME280;41919;42.648;23.384;2023-06-22T01:38:57;94954.78;;;17.42;100.00
56052;BME280;41919;42.648;23.384;2023-06-22T01:41:26;95002.19;;;17.78;100.00
56052;BME280;41919;42.648;23.384;2023-06-22T01:43:53;95009.28;;;17.77;100.00
56052;BME280;41919;42.648;23.384;2023-06-22T01:46:19;95000.41;;;17.67;100.00
56052;BME280;41919;42.648;23.384;2023-06-22T01:48:46;95003.59;;;17.69;100.00
56052;BME280;41919;42.648;23.384;2023-06-22T01:51:13;95017.78;;;17.62;100.00
56052;BME280;41919;42.648;23.384;2023-06-22T01:53:39;94952.34;;;17.24;100.00
56052;BME280;41919;42.648;23.384;2023-06-22T01:56:04;95009.97;;;17.56;100.00
56052;BME280;41919;42.648;23.384;2023-06-22T01:58:31;95004.88;;;17.37;100.00
56052;BME280;41919;42.648;23.384;2023-06-22T02:01:11;94953.41;;;17.11;100.00
56052;BME280;41919;42.648;23.384;2023-06-22T02:03:42;95010.97;;;17.38;100.00
56052;BME280;41919;42.648;23.384;2023-06-22T02:06:23;95020.06;;;17.30;100.00
56052;BME280;41919;42.648;23.384;2023-06-22T02:08:54;95014.25;;;17.16;100.00
56052;BME280;41919;42.648;23.384;2023-06-22T02:11:21;95012.84;;;17.14;100.00
56052;BME280;41919;42.648;23.384;2023-06-22T02:13:48;95021.00;;;17.12;100.00
56052;BME280;41919;42.648;23.384;2023-06-22T02:16:15;95013.56;;;17.09;100.00
56052;BME280;41919;42.648;23.384;2023-06-22T02:18:49;94998.75;;;17.08;100.00
56052;BME280;41919;42.648;23.384;2023-06-22T02:21:18;95009.72;;;17.29;100.00
56052;BME280;41919;42.648;23.384;2023-06-22T02:23:43;94943.56;;;16.95;100.00
56052;BME280;41919;42.648;23.384;2023-06-22T02:26:09;94899.09;;;16.63;100.00
56052;BME280;41919;42.648;23.384;2023-06-22T02:28:34;95016.72;;;17.35;100.00
56052;BME280;41919;42.648;23.384;2023-06-22T02:31:00;95009.63;;;17.23;100.00
56052;BME280;41919;42.648;23.384;2023-06-22T02:33:25;94954.50;;;16.87;100.00
56052;BME280;41919;42.648;23.384;2023-06-22T02:35:50;95000.78;;;17.18;100.00
56052;BME280;41919;42.648;23.384;2023-06-22T02:38:16;95009.34;;;17.37;100.00
56052;BME280;41919;42.648;23.384;2023-06-22T02:40:43;95007.38;;;17.44;100.00
56052;BME280;41919;42.648;23.384;2023-06-22T02:43:08;94943.81;;;16.93;100.00
56052;BME280;41919;42.648;23.384;2023-06-22T02:45:33;95006.28;;;17.28;100.00
56052;BME280;41919;42.648;23.384;2023-06-22T02:47:59;95005.28;;;17.17;100.00
56052;BME280;41919;42.648;23.384;2023-06-22T02:50:24;94967.56;;;16.93;100.00
56052;BME280;41919;42.648;23.384;2023-06-22T02:52:50;95019.94;;;17.25;100.00
56052;BME280;41919;42.648;23.384;2023-06-22T02:55:15;94981.91;;;16.97;100.00
56052;BME280;41919;42.648;23.384;2023-06-22T02:57:41;95013.00;;;17.07;100.00
56052;BME280;41919;42.648;23.384;2023-06-22T03:00:09;94981.81;;;16.92;100.00
56052;BME280;41919;42.648;23.384;2023-06-22T03:02:47;95019.38;;;17.23;100.00
56052;BME280;41919;42.648;23.384;2023-06-22T03:05:14;95022.78;;;17.35;100.00
56052;BME280;41919;42.648;23.384;2023-06-22T03:07:46;95017.84;;;17.39;100.00
56052;BME280;41919;42.648;23.384;2023-06-22T03:10:12;95030.44;;;17.60;100.00
56052;BME280;41919;42.648;23.384;2023-06-22T03:12:38;95020.50;;;17.68;100.00
56052;BME280;41919;42.648;23.384;2023-06-22T03:15:09;94990.16;;;17.41;100.00
56052;BME280;41919;42.648;23.384;2023-06-22T03:17:35;95037.31;;;17.61;100.00
56052;BME280;41919;42.648;23.384;2023-06-22T03:20:02;95022.22;;;17.45;100.00
56052;BME280;41919;42.648;23.384;2023-06-22T03:22:34;95032.41;;;17.53;100.00
56052;BME280;41919;42.648;23.384;2023-06-22T03:25:00;94987.22;;;17.26;100.00
56052;BME280;41919;42.648;23.384;2023-06-22T03:27:25;94994.63;;;17.41;100.00
56052;BME280;41919;42.648;23.384;2023-06-22T03:29:51;95048.41;;;18.04;100.00
56052;BME280;41919;42.648;23.384;2023-06-22T03:32:16;94980.22;;;17.89;100.00
56052;BME280;41919;42.648;23.384;2023-06-22T03:34:41;95046.28;;;18.52;100.00
56052;BME280;41919;42.648;23.384;2023-06-22T03:37:15;95052.91;;;18.71;100.00
56052;BME280;41919;42.648;23.384;2023-06-22T03:39:41;94989.09;;;18.51;100.00
56052;BME280;41919;42.648;23.384;2023-06-22T03:42:07;94977.31;;;18.41;100.00
56052;BME280;41919;42.648;23.384;2023-06-22T03:44:32;95047.69;;;18.76;100.00
56052;BME280;41919;42.648;23.384;2023-06-22T03:46:58;94993.91;;;18.54;100.00
56052;BME280;41919;42.648;23.384;2023-06-22T03:49:23;95051.13;;;19.11;100.00
56052;BME280;41919;42.648;23.384;2023-06-22T03:51:48;95061.25;;;19.36;99.42
56052;BME280;41919;42.648;23.384;2023-06-22T03:54:14;95062.16;;;19.69;97.19
56052;BME280;41919;42.648;23.384;2023-06-22T03:56:39;95011.16;;;19.62;94.62
56052;BME280;41919;42.648;23.384;2023-06-22T03:59:05;95056.81;;;19.86;93.07
56052;BME280;41919;42.648;23.384;2023-06-22T04:01:30;95075.38;;;20.13;92.99
56052;BME280;41919;42.648;23.384;2023-06-22T04:03:56;95007.81;;;19.93;91.73
56052;BME280;41919;42.648;23.384;2023-06-22T04:06:21;95068.72;;;20.70;89.43
56052;BME280;41919;42.648;23.384;2023-06-22T04:08:47;95070.41;;;20.86;87.53
56052;BME280;41919;42.648;23.384;2023-06-22T04:11:19;95076.19;;;21.15;85.86
56052;BME280;41919;42.648;23.384;2023-06-22T04:13:44;95064.81;;;21.25;84.66
56052;BME280;41919;42.648;23.384;2023-06-22T04:16:10;95071.53;;;21.43;83.80
56052;BME280;41919;42.648;23.384;2023-06-22T04:18:35;95019.91;;;21.34;83.33
56052;BME280;41919;42.648;23.384;2023-06-22T04:21:02;95061.63;;;21.81;82.62
56052;BME280;41919;42.648;23.384;2023-06-22T04:23:27;95067.00;;;22.02;81.26
56052;BME280;41919;42.648;23.384;2023-06-22T04:25:53;94997.16;;;21.48;81.48
56052;BME280;41919;42.648;23.384;2023-06-22T04:28:18;95054.19;;;21.93;81.58
56052;BME280;41919;42.648;23.384;2023-06-22T04:30:43;94999.31;;;21.62;81.63
56052;BME280;41919;42.648;23.384;2023-06-22T04:33:15;95046.16;;;21.73;83.30
56052;BME280;41919;42.648;23.384;2023-06-22T04:35:41;95041.84;;;21.57;83.80
56052;BME280;41919;42.648;23.384;2023-06-22T04:38:07;95037.41;;;21.83;84.39
56052;BME280;41919;42.648;23.384;2023-06-22T04:40:33;95034.94;;;21.56;86.14
56052;BME280;41919;42.648;23.384;2023-06-22T04:42:58;95033.47;;;21.27;86.45
56052;BME280;41919;42.648;23.384;2023-06-22T04:45:27;94982.41;;;20.72;88.72
56052;BME280;41919;42.648;23.384;2023-06-22T04:47:53;95034.13;;;21.02;88.76
56052;BME280;41919;42.648;23.384;2023-06-22T04:50:18;95020.97;;;20.80;89.11
56052;BME280;41919;42.648;23.384;2023-06-22T04:52:46;95027.13;;;20.81;88.81
56052;BME280;41919;42.648;23.384;2023-06-22T04:55:12;95039.38;;;20.92;88.78
56052;BME280;41919;42.648;23.384;2023-06-22T04:57:37;95046.94;;;21.10;86.41
56052;BME280;41919;42.648;23.384;2023-06-22T05:00:05;95049.28;;;21.54;84.60
56052;BME280;41919;42.648;23.384;2023-06-22T05:02:38;95063.28;;;22.23;81.69
56052;BME280;41919;42.648;23.384;2023-06-22T05:05:04;95046.25;;;22.96;79.36
56052;BME280;41919;42.648;23.384;2023-06-22T05:07:33;95061.47;;;23.81;73.22
56052;BME280;41919;42.648;23.384;2023-06-22T05:09:58;95066.41;;;24.48;67.64
56052;BME280;41919;42.648;23.384;2023-06-22T05:12:24;95060.75;;;25.18;64.17
56052;BME280;41919;42.648;23.384;2023-06-22T05:14:49;95051.34;;;25.69;61.22
56052;BME280;41919;42.648;23.384;2023-06-22T05:17:15;95054.44;;;26.19;59.19
56052;BME280;41919;42.648;23.384;2023-06-22T05:19:44;95039.69;;;26.03;58.77
56052;BME280;41919;42.648;23.384;2023-06-22T05:22:16;95054.19;;;26.54;58.62
56052;BME280;41919;42.648;23.384;2023-06-22T05:24:42;95006.91;;;26.63;57.30
56052;BME280;41919;42.648;23.384;2023-06-22T05:27:08;95055.72;;;27.40;54.06
56052;BME280;41919;42.648;23.384;2023-06-22T05:29:33;95054.22;;;27.89;52.81
56052;BME280;41919;42.648;23.384;2023-06-22T05:31:59;95009.78;;;28.05;50.23
56052;BME280;41919;42.648;23.384;2023-06-22T05:34:24;95060.75;;;28.69;49.83
56052;BME280;41919;42.648;23.384;2023-06-22T05:36:50;95061.22;;;28.94;48.89
56052;BME280;41919;42.648;23.384;2023-06-22T05:39:15;95051.28;;;29.03;47.68
56052;BME280;41919;42.648;23.384;2023-06-22T05:41:41;95072.19;;;29.29;46.78
56052;BME280;41919;42.648;23.384;2023-06-22T05:44:06;95020.47;;;29.09;46.27
56052;BME280;41919;42.648;23.384;2023-06-22T05:46:32;95065.84;;;29.33;46.82
56052;BME280;41919;42.648;23.384;2023-06-22T05:48:57;95077.75;;;29.32;46.76
56052;BME280;41919;42.648;23.384;2023-06-22T05:51:23;95083.56;;;29.66;46.14
56052;BME280;41919;42.648;23.384;2023-06-22T05:53:48;95086.38;;;30.01;47.77
56052;BME280;41919;42.648;23.384;2023-06-22T05:56:18;95022.09;;;29.68;46.46
56052;BME280;41919;42.648;23.384;2023-06-22T05:58:43;95075.47;;;30.23;45.21
56052;BME280;41919;42.648;23.384;2023-06-22T06:01:08;95066.56;;;30.05;45.04
56052;BME280;41919;42.648;23.384;2023-06-22T06:03:34;95081.88;;;29.39;46.61
56052;BME280;41919;42.648;23.384;2023-06-22T06:06:06;95071.69;;;28.73;48.07
56052;BME280;41919;42.648;23.384;2023-06-22T06:08:31;95076.16;;;28.41;49.59
56052;BME280;41919;42.648;23.384;2023-06-22T06:10:56;95080.84;;;27.85;54.41
56052;BME280;41919;42.648;23.384;2023-06-22T06:13:22;95029.97;;;27.25;54.64
56052;BME280;41919;42.648;23.384;2023-06-22T06:15:48;95061.59;;;27.69;54.71
56052;BME280;41919;42.648;23.384;2023-06-22T06:18:13;95054.88;;;28.08;53.06
56052;BME280;41919;42.648;23.384;2023-06-22T06:20:39;95068.06;;;28.19;53.09
56052;BME280;41919;42.648;23.384;2023-06-22T06:23:04;95051.53;;;27.89;54.55
56052;BME280;41919;42.648;23.384;2023-06-22T06:25:29;95065.34;;;27.96;54.55
56052;BME280;41919;42.648;23.384;2023-06-22T06:27:55;95066.69;;;28.07;53.93
56052;BME280;41919;42.648;23.384;2023-06-22T06:30:20;95014.81;;;27.70;53.16
56052;BME280;41919;42.648;23.384;2023-06-22T06:32:47;94931.78;;;27.10;54.02
56052;BME280;41919;42.648;23.384;2023-06-22T06:35:14;95062.94;;;28.08;54.94
56052;BME280;41919;42.648;23.384;2023-06-22T06:37:43;95006.38;;;27.77;54.83
56052;BME280;41919;42.648;23.384;2023-06-22T06:40:10;95065.91;;;28.43;53.84
56052;BME280;41919;42.648;23.384;2023-06-22T06:42:41;95058.84;;;28.92;52.34
56052;BME280;41919;42.648;23.384;2023-06-22T06:45:22;95050.03;;;28.78;52.37
56052;BME280;41919;42.648;23.384;2023-06-22T06:47:49;95051.34;;;29.12;51.54
56052;BME280;41919;42.648;23.384;2023-06-22T06:50:15;95057.78;;;29.33;50.63
56052;BME280;41919;42.648;23.384;2023-06-22T06:52:41;95006.84;;;29.06;49.45
56052;BME280;41919;42.648;23.384;2023-06-22T06:55:07;94998.50;;;28.53;49.79
56052;BME280;41919;42.648;23.384;2023-06-22T06:57:35;95000.69;;;28.51;50.04
56052;BME280;41919;42.648;23.384;2023-06-22T07:00:03;94997.97;;;28.74;51.01
56052;BME280;41919;42.648;23.384;2023-06-22T07:02:34;95025.75;;;29.72;48.18
56052;BME280;41919;42.648;23.384;2023-06-22T07:04:59;95026.97;;;30.15;46.64
56052;BME280;41919;42.648;23.384;2023-06-22T07:07:25;94990.63;;;30.12;45.97
56052;BME280;41919;42.648;23.384;2023-06-22T07:09:50;95032.19;;;30.46;46.10
56052;BME280;41919;42.648;23.384;2023-06-22T07:12:16;94991.44;;;30.30;46.06
56052;BME280;41919;42.648;23.384;2023-06-22T07:14:41;95033.44;;;30.66;45.14
56052;BME280;41919;42.648;23.384;2023-06-22T07:17:06;95055.59;;;30.89;44.35
56052;BME280;41919;42.648;23.384;2023-06-22T07:19:32;94986.44;;;30.76;44.49
56052;BME280;41919;42.648;23.384;2023-06-22T07:21:58;95031.69;;;31.35;44.50
56052;BME280;41919;42.648;23.384;2023-06-22T07:24:24;95041.81;;;31.46;44.07
56052;BME280;41919;42.648;23.384;2023-06-22T07:26:50;94990.66;;;31.50;42.32
56052;BME280;41919;42.648;23.384;2023-06-22T07:29:20;95003.69;;;31.78;41.38
56052;BME280;41919;42.648;23.384;2023-06-22T07:31:46;95032.47;;;32.24;40.34
56052;BME280;41919;42.648;23.384;2023-06-22T07:34:12;95000.28;;;32.11;40.85
56052;BME280;41919;42.648;23.384;2023-06-22T07:36:38;95038.50;;;32.42;40.45
56052;BME280;41919;42.648;23.384;2023-06-22T07:39:03;94921.09;;;31.38;41.03
56052;BME280;41919;42.648;23.384;2023-06-22T07:41:30;95038.47;;;32.30;40.92
56052;BME280;41919;42.648;23.384;2023-06-22T07:43:55;95048.59;;;32.54;39.59
56052;BME280;41919;42.648;23.384;2023-06-22T07:46:21;94996.97;;;32.47;38.48
56052;BME280;41919;42.648;23.384;2023-06-22T07:48:46;94994.19;;;32.35;39.19
56052;BME280;41919;42.648;23.384;2023-06-22T07:51:11;95035.47;;;32.65;38.88
56052;BME280;41919;42.648;23.384;2023-06-22T07:53:41;95002.88;;;32.61;38.06
56052;BME280;41919;42.648;23.384;2023-06-22T07:56:07;95050.44;;;32.96;37.95
56052;BME280;41919;42.648;23.384;2023-06-22T07:58:32;95039.03;;;33.24;37.77
56052;BME280;41919;42.648;23.384;2023-06-22T08:00:58;94992.56;;;32.76;37.62
56052;BME280;41919;42.648;23.384;2023-06-22T08:03:24;95025.94;;;33.26;37.80
56052;BME280;41919;42.648;23.384;2023-06-22T08:05:49;94975.00;;;32.49;38.61
56052;BME280;41919;42.648;23.384;2023-06-22T08:08:15;94985.81;;;32.94;37.19
56052;BME280;41919;42.648;23.384;2023-06-22T08:10:42;95032.94;;;33.14;37.83
56052;BME280;41919;42.648;23.384;2023-06-22T08:13:07;94974.78;;;32.99;37.81
56052;BME280;41919;42.648;23.384;2023-06-22T08:15:33;95024.47;;;32.82;37.28
56052;BME280;41919;42.648;23.384;2023-06-22T08:17:58;95027.69;;;32.97;36.63
56052;BME280;41919;42.648;23.384;2023-06-22T08:20:25;95019.78;;;33.04;37.12
56052;BME280;41919;42.648;23.384;2023-06-22T08:22:50;95031.78;;;33.15;37.01
56052;BME280;41919;42.648;23.384;2023-06-22T08:25:16;95016.84;;;33.09;37.73
56052;BME280;41919;42.648;23.384;2023-06-22T08:27:45;95015.66;;;33.19;37.66
56052;BME280;41919;42.648;23.384;2023-06-22T08:30:10;95013.06;;;33.35;37.62
56052;BME280;41919;42.648;23.384;2023-06-22T08:32:36;95003.03;;;33.48;35.90
56052;BME280;41919;42.648;23.384;2023-06-22T08:35:01;95007.91;;;33.79;35.98
56052;BME280;41919;42.648;23.384;2023-06-22T08:37:27;94980.44;;;33.56;36.03
56052;BME280;41919;42.648;23.384;2023-06-22T08:40:00;94964.31;;;33.47;36.05
56052;BME280;41919;42.648;23.384;2023-06-22T08:42:35;94964.44;;;33.26;35.37
56052;BME280;41919;42.648;23.384;2023-06-22T08:45:01;95000.38;;;32.90;37.01
56052;BME280;41919;42.648;23.384;2023-06-22T08:47:29;95004.94;;;32.77;37.58
56052;BME280;41919;42.648;23.384;2023-06-22T08:49:54;94961.66;;;32.43;37.03
56052;BME280;41919;42.648;23.384;2023-06-22T08:52:20;95023.69;;;32.82;37.92
56052;BME280;41919;42.648;23.384;2023-06-22T08:54:46;94999.53;;;32.77;37.67
56052;BME280;41919;42.648;23.384;2023-06-22T08:57:11;95016.84;;;32.97;38.39
56052;BME280;41919;42.648;23.384;2023-06-22T08:59:37;95011.25;;;33.27;37.67
56052;BME280;41919;42.648;23.384;2023-06-22T09:02:02;95011.72;;;32.50;38.17
56052;BME280;41919;42.648;23.384;2023-06-22T09:04:28;95005.38;;;32.12;38.28
56052;BME280;41919;42.648;23.384;2023-06-22T09:06:53;94997.47;;;31.77;40.12
56052;BME280;41919;42.648;23.384;2023-06-22T09:09:19;94941.75;;;31.13;40.64
56052;BME280;41919;42.648;23.384;2023-06-22T09:11:44;95003.00;;;32.11;39.67
56052;BME280;41919;42.648;23.384;2023-06-22T09:14:10;94949.16;;;32.18;39.05
56052;BME280;41919;42.648;23.384;2023-06-22T09:16:36;94955.78;;;32.75;38.27
56052;BME280;41919;42.648;23.384;2023-06-22T09:19:02;94902.69;;;32.70;37.51
56052;BME280;41919;42.648;23.384;2023-06-22T09:21:27;94997.16;;;33.21;36.78
56052;BME280;41919;42.648;23.384;2023-06-22T09:23:53;95006.09;;;33.34;36.31
56052;BME280;41919;42.648;23.384;2023-06-22T09:26:18;94983.63;;;33.33;36.51
56052;BME280;41919;42.648;23.384;2023-06-22T09:28:44;94991.66;;;33.30;36.73
56052;BME280;41919;42.648;23.384;2023-06-22T09:31:09;94997.75;;;33.39;36.34
56052;BME280;41919;42.648;23.384;2023-06-22T09:33:36;94961.03;;;33.05;35.42
56052;BME280;41919;42.648;23.384;2023-06-22T09:36:04;94966.47;;;33.29;33.99
56052;BME280;41919;42.648;23.384;2023-06-22T09:38:30;95010.50;;;32.80;36.74
56052;BME280;41919;42.648;23.384;2023-06-22T09:40:55;95002.41;;;32.93;37.30
56052;BME280;41919;42.648;23.384;2023-06-22T09:43:21;95001.41;;;33.10;35.77
56052;BME280;41919;42.648;23.384;2023-06-22T09:45:46;94998.63;;;33.18;35.12
56052;BME280;41919;42.648;23.384;2023-06-22T09:48:11;94955.81;;;32.87;35.63
56052;BME280;41919;42.648;23.384;2023-06-22T09:50:37;94997.94;;;33.46;34.93
56052;BME280;41919;42.648;23.384;2023-06-22T09:53:02;94993.44;;;33.26;37.18
56052;BME280;41919;42.648;23.384;2023-06-22T09:55:28;94990.69;;;33.01;34.56
56052;BME280;41919;42.648;23.384;2023-06-22T09:57:53;94997.22;;;33.00;34.92
56052;BME280;41919;42.648;23.384;2023-06-22T10:00:20;94989.78;;;33.09;34.75
56052;BME280;41919;42.648;23.384;2023-06-22T10:02:47;94945.28;;;32.73;35.03
56052;BME280;41919;42.648;23.384;2023-06-22T10:05:12;94940.16;;;32.93;34.24
56052;BME280;41919;42.648;23.384;2023-06-22T10:07:37;94927.06;;;32.95;34.48
56052;BME280;41919;42.648;23.384;2023-06-22T10:10:07;94928.84;;;32.91;34.44
56052;BME280;41919;42.648;23.384;2023-06-22T10:12:33;94981.47;;;33.14;36.07
56052;BME280;41919;42.648;23.384;2023-06-22T10:14:58;94978.88;;;32.39;35.65
56052;BME280;41919;42.648;23.384;2023-06-22T10:17:24;94936.97;;;31.70;37.54
56052;BME280;41919;42.648;23.384;2023-06-22T10:19:49;94979.09;;;31.92;36.72
56052;BME280;41919;42.648;23.384;2023-06-22T10:22:14;94971.13;;;31.95;37.13
56052;BME280;41919;42.648;23.384;2023-06-22T10:24:40;94958.53;;;31.99;36.68
56052;BME280;41919;42.648;23.384;2023-06-22T10:27:12;94969.34;;;31.99;36.57
56052;BME280;41919;42.648;23.384;2023-06-22T10:29:38;94972.09;;;31.70;37.23
56052;BME280;41919;42.648;23.384;2023-06-22T10:32:04;94977.44;;;31.78;38.66
56052;BME280;41919;42.648;23.384;2023-06-22T10:34:30;94973.81;;;31.44;38.87
56052;BME280;41919;42.648;23.384;2023-06-22T10:36:55;94923.28;;;31.45;33.56
56052;BME280;41919;42.648;23.384;2023-06-22T10:39:21;94948.63;;;31.61;34.39
56052;BME280;41919;42.648;23.384;2023-06-22T10:41:46;94964.72;;;31.79;34.02
56052;BME280;41919;42.648;23.384;2023-06-22T10:44:11;94960.78;;;31.46;33.66
56052;BME280;41919;42.648;23.384;2023-06-22T10:46:37;94966.63;;;31.57;34.25
56052;BME280;41919;42.648;23.384;2023-06-22T10:49:03;94955.28;;;31.64;33.93
56052;BME280;41919;42.648;23.384;2023-06-22T10:51:28;94938.56;;;31.71;35.10
56052;BME280;41919;42.648;23.384;2023-06-22T10:53:54;94906.19;;;31.11;34.75
56052;BME280;41919;42.648;23.384;2023-06-22T10:56:19;94945.44;;;31.00;36.40
56052;BME280;41919;42.648;23.384;2023-06-22T10:58:45;94886.69;;;30.67;37.12
56052;BME280;41919;42.648;23.384;2023-06-22T11:01:10;94928.66;;;30.94;37.42
56052;BME280;41919;42.648;23.384;2023-06-22T11:03:35;94951.06;;;31.24;35.59
56052;BME280;41919;42.648;23.384;2023-06-22T11:06:01;94938.94;;;31.31;34.60
56052;BME280;41919;42.648;23.384;2023-06-22T11:08:26;94951.69;;;30.92;36.21
56052;BME280;41919;42.648;23.384;2023-06-22T11:10:52;94953.44;;;30.79;38.28
56052;BME280;41919;42.648;23.384;2023-06-22T11:13:17;94957.63;;;30.59;37.57
56052;BME280;41919;42.648;23.384;2023-06-22T11:15:43;94951.72;;;30.74;38.05
56052;BME280;41919;42.648;23.384;2023-06-22T11:18:08;94952.63;;;30.96;36.26
56052;BME280;41919;42.648;23.384;2023-06-22T11:20:34;94938.97;;;31.22;36.02
56052;BME280;41919;42.648;23.384;2023-06-22T11:23:07;94936.78;;;31.45;35.02
56052;BME280;41919;42.648;23.384;2023-06-22T11:25:32;94929.91;;;31.56;35.18
56052;BME280;41919;42.648;23.384;2023-06-22T11:28:02;94885.69;;;31.40;35.13
56052;BME280;41919;42.648;23.384;2023-06-22T11:30:27;94931.50;;;31.99;33.45
56052;BME280;41919;42.648;23.384;2023-06-22T11:32:53;94927.06;;;32.16;33.96
56052;BME280;41919;42.648;23.384;2023-06-22T11:35:18;94917.53;;;32.18;33.92
56052;BME280;41919;42.648;23.384;2023-06-22T11:37:43;94884.97;;;32.27;33.12
56052;BME280;41919;42.648;23.384;2023-06-22T11:40:09;94921.59;;;32.58;33.55
56052;BME280;41919;42.648;23.384;2023-06-22T11:42:35;94938.66;;;32.37;33.54
56052;BME280;41919;42.648;23.384;2023-06-22T11:45:00;94933.91;;;32.34;33.21
56052;BME280;41919;42.648;23.384;2023-06-22T11:47:26;94925.09;;;32.25;32.79
56052;BME280;41919;42.648;23.384;2023-06-22T11:49:52;94921.66;;;32.49;32.96
56052;BME280;41919;42.648;23.384;2023-06-22T11:52:18;94917.22;;;32.66;32.25
56052;BME280;41919;42.648;23.384;2023-06-22T11:54:44;94904.81;;;32.65;32.88
56052;BME280;41919;42.648;23.384;2023-06-22T11:57:11;94882.97;;;32.82;32.54
56052;BME280;41919;42.648;23.384;2023-06-22T11:59:36;94884.53;;;32.95;32.87
56052;BME280;41919;42.648;23.384;2023-06-22T12:02:01;94909.38;;;32.39;31.50
56052;BME280;41919;42.648;23.384;2023-06-22T12:04:27;94898.56;;;32.39;33.33
56052;BME280;41919;42.648;23.384;2023-06-22T12:06:52;94909.59;;;32.47;33.03
56052;BME280;41919;42.648;23.384;2023-06-22T12:09:17;94905.16;;;32.63;32.81
56052;BME280;41919;42.648;23.384;2023-06-22T12:11:43;94905.16;;;32.75;31.55
56052;BME280;41919;42.648;23.384;2023-06-22T12:14:08;94906.06;;;32.67;33.78
56052;BME280;41919;42.648;23.384;2023-06-22T12:16:34;94895.66;;;32.23;32.58
56052;BME280;41919;42.648;23.384;2023-06-22T12:18:59;94932.50;;;31.53;37.44
56052;BME280;41919;42.648;23.384;2023-06-22T12:21:24;94907.69;;;30.91;40.78
56052;BME280;41919;42.648;23.384;2023-06-22T12:23:50;94884.09;;;30.23;42.69
56052;BME280;41919;42.648;23.384;2023-06-22T12:26:15;94944.94;;;29.63;44.16
56052;BME280;41919;42.648;23.384;2023-06-22T12:28:41;94948.72;;;29.05;46.08
56052;BME280;41919;42.648;23.384;2023-06-22T12:31:06;94906.41;;;28.48;47.09
56052;BME280;41919;42.648;23.384;2023-06-22T12:33:31;94931.47;;;28.34;48.25
56052;BME280;41919;42.648;23.384;2023-06-22T12:35:57;94937.25;;;27.83;49.81
56052;BME280;41919;42.648;23.384;2023-06-22T12:38:22;94963.44;;;27.63;49.87
56052;BME280;41919;42.648;23.384;2023-06-22T12:40:50;94964.03;;;26.77;57.87
56052;BME280;41919;42.648;23.384;2023-06-22T12:43:15;94976.50;;;25.64;65.04
56052;BME280;41919;42.648;23.384;2023-06-22T12:45:40;94928.97;;;24.64;73.92
56052;BME280;41919;42.648;23.384;2023-06-22T12:48:06;94912.94;;;24.01;79.41
56052;BME280;41919;42.648;23.384;2023-06-22T12:50:31;94955.63;;;24.06;84.44